Time;durP1;ratioP1;P1;durP2;ratioP2;P2;SDS_P1;SDS_P2;PMS_P1;PMS_P2;Temp;Humidity;BMP_temperature;BMP_pressure;BME280_temperature;BME280_humidity;BME280_pressure;Samples;Min_cycle;Max_cycle;Signal;HPM_P1;HPM_P2
2021/03/13 00:03:30;;;;;;;3.07;2.07;;;;;;;3.14;79.11;98969.22;4958913;29;20212;-80
2021/03/13 00:06:39;;;;;;;3.20;2.30;;;;;;;2.96;79.19;98959.06;4959606;28;20237;-81
2021/03/13 00:09:45;;;;;;;2.70;2.20;;;;;;;2.96;79.66;98963.53;4950368;29;20299;-81
2021/03/13 00:12:58;;;;;;;4.47;2.53;;;;;;;2.94;80.03;98976.94;4958057;29;20228;-80
2021/03/13 00:16:03;;;;;;;3.27;2.07;;;;;;;2.93;80.11;98972.66;4958777;29;20257;-80
2021/03/13 00:18:53;;;;;;;2.20;2.00;;;;;;;2.83;79.99;98958.91;4959070;29;20225;-79
2021/03/13 00:21:53;;;;;;;2.20;1.80;;;;;;;2.92;79.68;98971.03;4960457;24;20233;-79
2021/03/13 00:24:47;;;;;;;2.63;2.10;;;;;;;2.72;79.68;98953.25;4949635;23;20233;-80
2021/03/13 00:27:48;;;;;;;3.10;2.23;;;;;;;2.85;79.24;98975.41;4925970;29;20253;-81
2021/03/13 00:31:06;;;;;;;2.57;2.17;;;;;;;2.65;79.27;98945.28;4939089;29;20217;-80
2021/03/13 00:34:26;;;;;;;2.73;2.00;;;;;;;2.73;79.63;98961.03;4938641;29;20234;-81
2021/03/13 00:37:38;;;;;;;3.13;2.13;;;;;;;2.83;78.79;98990.66;4939440;29;20254;-80
2021/03/13 00:40:52;;;;;;;4.30;2.50;;;;;;;2.71;79.51;98975.47;4936751;29;20240;-81
2021/03/13 00:44:16;;;;;;;3.90;2.50;;;;;;;2.74;79.01;98988.31;4938827;29;20646;-81
2021/03/13 00:47:16;;;;;;;3.23;2.43;;;;;;;2.64;79.47;98978.84;4972635;23;20221;-81
2021/03/13 00:50:17;;;;;;;3.07;2.30;;;;;;;2.64;80.01;99004.47;4958001;29;20671;-83
2021/03/13 00:53:17;;;;;;;3.20;2.33;;;;;;;2.48;79.97;98978.19;4902655;23;20234;-82
2021/03/13 00:56:26;;;;;;;3.50;2.27;;;;;;;2.50;79.66;99000.00;4919379;29;20234;-83
2021/03/13 00:59:39;;;;;;;3.50;2.33;;;;;;;2.51;79.65;98985.78;4942497;23;20536;-81
2021/03/13 01:02:42;;;;;;;2.93;2.20;;;;;;;2.45;80.06;98991.78;4932444;23;20218;-81
2021/03/13 01:05:40;;;;;;;4.20;2.27;;;;;;;2.43;80.11;98991.97;4926859;29;20229;-82
2021/03/13 01:08:43;;;;;;;3.77;2.40;;;;;;;2.25;80.07;98972.19;4939435;29;20224;-82
2021/03/13 01:11:59;;;;;;;3.63;2.50;;;;;;;2.25;80.77;98975.66;5067069;23;20243;-81
2021/03/13 01:14:59;;;;;;;4.70;2.53;;;;;;;2.28;79.77;98956.81;4901354;29;20250;-83
2021/03/13 01:18:00;;;;;;;3.27;2.10;;;;;;;2.26;80.00;98947.41;4900387;29;20242;-81
2021/03/13 01:21:18;;;;;;;2.53;2.20;;;;;;;2.30;79.74;98967.16;4872673;29;20221;-82
2021/03/13 01:24:21;;;;;;;3.87;2.20;;;;;;;2.12;79.80;98931.38;4915020;23;20230;-82
2021/03/13 01:27:40;;;;;;;3.30;2.50;;;;;;;2.32;80.26;98958.06;4928987;29;20233;-82
2021/03/13 01:30:52;;;;;;;3.97;2.37;;;;;;;2.25;79.99;98953.69;4956656;29;20194;-81
2021/03/13 01:33:58;;;;;;;3.00;2.20;;;;;;;2.26;80.26;98973.84;4958354;29;20217;-81
2021/03/13 01:37:26;;;;;;;2.57;2.10;;;;;;;2.26;80.74;98968.53;4945969;29;20217;-81
2021/03/13 01:40:33;;;;;;;3.23;2.30;;;;;;;2.19;80.07;98942.03;4941838;29;20236;-81
2021/03/13 01:43:38;;;;;;;2.90;2.10;;;;;;;1.98;79.91;98939.28;4941060;29;20220;-81
2021/03/13 01:47:01;;;;;;;2.90;2.10;;;;;;;2.03;79.64;98940.38;4957377;29;20205;-81
2021/03/13 01:50:15;;;;;;;2.70;1.93;;;;;;;2.14;79.61;98954.97;4880781;29;20256;-82
2021/03/13 01:53:25;;;;;;;3.17;2.00;;;;;;;2.11;79.53;98968.53;4881381;29;20228;-82
2021/03/13 01:56:51;;;;;;;2.70;2.10;;;;;;;2.01;79.34;98952.94;4881427;29;20275;-82
2021/03/13 01:59:58;;;;;;;3.47;1.97;;;;;;;2.05;79.89;98961.34;4857072;29;20215;-83
2021/03/13 02:03:11;;;;;;;4.40;2.60;;;;;;;1.74;79.06;98909.47;4870459;29;20232;-82
2021/03/13 02:06:31;;;;;;;3.23;1.77;;;;;;;2.06;78.76;98960.34;4882633;24;20232;31
2021/03/13 02:10:27;;;;;;;2.50;2.00;;;;;;;1.99;79.36;98959.44;4862530;29;20236;-81
2021/03/13 02:13:51;;;;;;;2.50;1.97;;;;;;;2.02;78.82;98954.59;4865082;29;20259;-81
2021/03/13 02:17:16;;;;;;;2.97;1.70;;;;;;;2.05;78.68;98953.44;4945013;24;20690;-81
2021/03/13 02:21:16;;;;;;;2.80;1.70;;;;;;;2.09;78.51;98946.78;4937912;29;20199;-81
2021/03/13 02:25:06;;;;;;;2.60;2.00;;;;;;;2.08;77.74;98945.94;4912855;23;20218;-82
2021/03/13 02:28:43;;;;;;;3.00;1.90;;;;;;;2.01;78.78;98934.47;4946291;29;20230;-82
2021/03/13 02:32:01;;;;;;;1.87;1.73;;;;;;;1.72;77.71;98881.63;4960652;23;20229;-83
2021/03/13 02:36:08;;;;;;;1.87;1.73;;;;;;;1.94;78.11;98933.56;4959119;29;20241;-83
2021/03/13 02:39:50;;;;;;;3.30;2.07;;;;;;;1.98;77.70;98932.19;4956350;29;20225;-81
2021/03/13 02:43:09;;;;;;;3.33;2.00;;;;;;;2.06;77.74;98929.44;4942970;29;20189;-82
2021/03/13 02:46:43;;;;;;;2.00;1.70;;;;;;;2.08;77.36;98939.84;4940947;29;20221;-82
2021/03/13 02:49:55;;;;;;;3.30;1.90;;;;;;;2.02;77.20;98927.34;4942926;29;20257;-82
2021/03/13 02:53:40;;;;;;;3.53;1.90;;;;;;;2.06;78.00;98945.31;4932153;29;20200;-82
2021/03/13 02:57:13;;;;;;;2.43;1.83;;;;;;;2.09;77.32;98944.13;4931111;29;20236;-81
2021/03/13 03:00:16;;;;;;;2.10;1.90;;;;;;;2.09;77.69;98938.84;4941708;29;20222;-83
2021/03/13 03:03:42;;;;;;;2.93;2.00;;;;;;;2.14;77.22;98934.66;4953461;29;20269;-82
2021/03/13 03:07:08;;;;;;;2.87;1.83;;;;;;;2.20;77.80;98928.63;4958047;29;20213;-81
2021/03/13 03:10:30;;;;;;;3.23;1.87;;;;;;;2.20;76.59;98914.59;4957867;28;20225;-82
2021/03/13 03:14:04;;;;;;;2.10;1.90;;;;;;;2.25;77.23;98928.06;4938385;29;20182;-81
2021/03/13 03:17:16;;;;;;;2.27;1.90;;;;;;;2.19;76.98;98916.41;4947993;23;20233;-82
2021/03/13 03:20:28;;;;;;;3.77;2.00;;;;;;;2.20;76.44;98915.41;4949572;28;20241;-83
2021/03/13 03:23:37;;;;;;;2.47;1.87;;;;;;;2.17;76.14;98886.72;4954915;29;20247;-82
2021/03/13 03:26:47;;;;;;;2.70;1.90;;;;;;;2.36;76.32;98908.28;4953439;29;20216;-83
2021/03/13 03:30:10;;;;;;;2.20;2.00;;;;;;;2.59;75.27;98919.56;4955563;29;20225;-81
2021/03/13 03:33:30;;;;;;;3.30;2.13;;;;;;;2.65;74.22;98890.56;4958117;29;20261;-83
2021/03/13 03:36:49;;;;;;;2.87;2.30;;;;;;;2.87;74.40;98928.44;4929093;29;20297;-83
2021/03/13 03:40:19;;;;;;;2.30;2.10;;;;;;;3.06;73.92;98932.28;4956704;29;20285;-81
2021/03/13 03:43:55;;;;;;;3.70;2.20;;;;;;;3.43;72.87;98931.19;4933126;29;20198;-82
2021/03/13 03:47:06;;;;;;;4.10;2.60;;;;;;;3.60;72.23;98924.59;4938348;29;20230;-82
2021/03/13 03:50:10;;;;;;;3.00;2.47;;;;;;;3.85;71.34;98932.94;4936636;29;20226;-82
2021/03/13 03:53:47;;;;;;;3.60;2.73;;;;;;;3.91;70.77;98924.22;4924249;29;20221;-83
2021/03/13 03:56:50;;;;;;;4.40;3.00;;;;;;;4.05;70.14;98909.22;4938484;29;20232;-83
2021/03/13 04:00:26;;;;;;;4.23;3.00;;;;;;;4.29;70.12;98937.94;4938302;29;20224;-83
2021/03/13 04:03:34;;;;;;;3.17;2.87;;;;;;;4.53;69.00;98918.00;4926600;29;20234;-83
2021/03/13 04:07:12;;;;;;;3.87;3.47;;;;;;;4.51;69.05;98922.72;4927055;29;20229;-82
2021/03/13 04:10:33;;;;;;;4.60;3.30;;;;;;;4.32;69.16;98900.41;4960219;23;20274;-80
2021/03/13 04:14:04;;;;;;;4.40;3.33;;;;;;;4.52;68.76;98919.88;4902278;29;20234;-82
2021/03/13 04:17:26;;;;;;;3.57;3.03;;;;;;;4.43;68.93;98913.91;4907770;29;20233;-83
2021/03/13 04:20:53;;;;;;;3.53;3.07;;;;;;;4.37;68.67;98887.38;4939057;29;20237;-81
2021/03/13 04:24:04;;;;;;;4.10;2.90;;;;;;;4.61;68.04;98918.69;4937811;29;20210;-81
2021/03/13 04:27:02;;;;;;;4.03;3.07;;;;;;;4.60;68.11;98914.38;4970467;23;20245;-81
2021/03/13 04:30:11;;;;;;;3.20;2.90;;;;;;;4.55;67.96;98902.72;4955445;29;20229;-81
2021/03/13 04:33:44;;;;;;;3.80;3.07;;;;;;;4.59;68.10;98914.56;4954849;29;20226;-82
2021/03/13 04:36:53;;;;;;;4.63;3.27;;;;;;;4.49;68.36;98901.69;4955187;29;20284;-81
2021/03/13 04:39:54;;;;;;;4.07;3.43;;;;;;;4.52;68.35;98903.13;4942495;29;20288;-81
2021/03/13 04:42:59;;;;;;;3.70;3.30;;;;;;;4.44;68.25;98894.31;4954101;23;20577;-81
2021/03/13 04:46:05;;;;;;;4.27;3.57;;;;;;;4.50;68.46;98902.50;4957106;29;20229;-81
2021/03/13 04:49:29;;;;;;;4.23;3.60;;;;;;;4.60;67.89;98892.34;4956440;29;20236;-81
2021/03/13 04:52:50;;;;;;;5.27;3.53;;;;;;;4.59;67.71;98882.75;4947682;29;20221;-81
2021/03/13 04:55:58;;;;;;;4.00;3.50;;;;;;;4.73;67.93;98897.69;4947757;29;20225;-81
2021/03/13 04:58:54;;;;;;;4.17;3.77;;;;;;;4.81;67.54;98898.31;4951876;29;20225;-81
2021/03/13 05:02:02;;;;;;;4.13;3.40;;;;;;;4.90;67.23;98896.28;4949748;23;20230;-81
2021/03/13 05:04:56;;;;;;;4.50;3.70;;;;;;;4.95;67.16;98899.16;4944413;29;20193;-81
2021/03/13 05:12:11;;;;;;;3.63;3.20;;;;;;;5.18;65.63;98899.59;4962248;23;20291;-80
2021/03/13 05:15:47;;;;;;;4.10;3.20;;;;;;;5.04;65.17;98860.00;4966262;23;20217;-80
2021/03/13 05:19:33;;;;;;;3.73;3.20;;;;;;;5.39;64.56;98906.59;4882805;29;20228;-81
2021/03/13 05:23:21;;;;;;;3.97;2.93;;;;;;;5.48;64.87;98913.34;4949687;23;20218;-79
2021/03/13 05:27:25;;;;;;;3.57;3.27;;;;;;;5.55;64.17;98908.03;4917673;29;20245;-81
2021/03/13 05:31:14;;;;;;;3.63;3.03;;;;;;;5.57;63.92;98887.38;4952151;23;20233;-81
2021/03/13 05:34:57;;;;;;;3.67;3.03;;;;;;;5.70;63.33;98904.13;4939647;29;20233;-80
2021/03/13 05:38:38;;;;;;;5.17;3.13;;;;;;;5.76;63.01;98908.63;4920211;29;20233;-80
2021/03/13 05:42:40;;;;;;;3.10;2.73;;;;;;;5.95;62.26;98911.50;4948030;23;20252;-79
2021/03/13 05:46:56;;;;;;;3.33;2.80;;;;;;;6.10;61.42;98910.25;5025248;23;20233;-80
2021/03/13 05:54:28;;;;;;;2.87;2.60;;;;;;;6.32;60.41;98915.28;4954279;23;20279;-80
2021/03/13 05:58:31;;;;;;;3.20;2.77;;;;;;;6.48;59.84;98899.69;4971070;23;20367;-80
2021/03/13 06:06:19;;;;;;;3.20;2.73;;;;;;;6.57;58.82;98906.41;5089030;23;20244;-81
2021/03/13 06:10:16;;;;;;;3.47;2.60;;;;;;;6.67;58.54;98897.16;4947802;23;20221;-79
2021/03/13 06:14:17;;;;;;;3.07;2.77;;;;;;;6.94;57.82;98918.09;4958335;29;20273;-80
2021/03/13 06:17:59;;;;;;;3.20;2.37;;;;;;;7.04;57.35;98912.31;4953406;29;20221;-79
2021/03/13 06:21:57;;;;;;;3.13;2.60;;;;;;;7.21;57.23;98921.41;4953939;29;20228;-80
2021/03/13 06:25:53;;;;;;;4.00;2.90;;;;;;;7.37;56.40;98923.53;4937367;29;20217;-80
2021/03/13 06:29:53;;;;;;;3.20;2.50;;;;;;;7.55;56.02;98935.34;4959035;29;20224;-82
2021/03/13 06:33:48;;;;;;;2.77;2.47;;;;;;;7.71;55.48;98940.94;4957575;29;20293;-83
2021/03/13 06:41:02;;;;;;;2.97;2.70;;;;;;;7.77;54.84;98896.59;4953354;23;20221;-81
2021/03/13 06:49:10;;;;;;;3.80;2.70;;;;;;;8.20;54.30;98932.06;4941763;29;20221;-83
2021/03/13 06:55:35;;;;;;;4.00;2.47;;;;;;;8.34;53.11;98916.78;4861126;29;20226;-83
2021/03/13 06:58:47;;;;;;;3.37;3.00;;;;;;;8.66;53.13;98939.59;4860003;29;20232;-83
2021/03/13 07:02:10;;;;;;;2.80;2.40;;;;;;;8.81;52.66;98925.84;4849604;29;20240;-83
2021/03/13 07:05:29;;;;;;;3.63;2.83;;;;;;;9.10;51.72;98943.75;4844300;29;20237;-83
2021/03/13 07:08:37;;;;;;;3.20;2.70;;;;;;;9.31;51.15;98942.44;4857709;29;20225;-83
2021/03/13 07:11:47;;;;;;;4.73;2.67;;;;;;;9.58;50.68;98957.03;4856454;29;20299;-83
2021/03/13 07:14:49;;;;;;;4.57;2.60;;;;;;;9.69;50.31;98932.19;4841430;29;20243;-83
2021/03/13 07:17:41;;;;;;;4.67;2.60;;;;;;;9.80;48.95;98937.78;4833101;29;20236;-83
2021/03/13 07:20:32;;;;;;;3.90;2.60;;;;;;;10.04;48.90;98948.25;4840558;29;20235;-82
2021/03/13 07:23:36;;;;;;;3.57;2.60;;;;;;;10.27;47.54;98962.69;4854637;29;20224;-83
2021/03/13 07:26:45;;;;;;;3.17;2.60;;;;;;;10.45;47.58;98950.00;4841893;29;20236;-83
2021/03/13 07:29:36;;;;;;;2.50;2.30;;;;;;;10.44;47.41;98940.34;4844087;29;20233;-83
2021/03/13 07:32:24;;;;;;;3.77;2.40;;;;;;;10.53;46.91;98940.81;4845032;29;20184;-81
2021/03/13 07:36:18;;;;;;;3.97;2.40;;;;;;;10.76;47.06;98948.78;4851945;29;20253;-81
2021/03/13 07:39:12;;;;;;;2.97;2.30;;;;;;;10.90;46.77;98952.00;4841326;29;20308;-81
2021/03/13 07:42:22;;;;;;;2.80;2.50;;;;;;;10.95;46.46;98960.16;4841140;29;20197;-79
2021/03/13 07:45:07;;;;;;;3.00;2.60;;;;;;;11.11;46.52;98961.25;4826043;29;20252;-82
2021/03/13 07:47:59;;;;;;;2.93;2.63;;;;;;;11.01;46.67;98921.69;4841406;29;20194;-82
2021/03/13 07:50:59;;;;;;;4.47;2.70;;;;;;;11.22;46.43;98942.44;4832686;29;20208;-82
2021/03/13 07:53:56;;;;;;;3.40;3.10;;;;;;;11.32;45.96;98957.91;4860050;29;20241;-81
2021/03/13 07:57:08;;;;;;;3.53;2.63;;;;;;;11.39;45.17;98940.59;4847467;29;20239;-81
2021/03/13 08:00:58;;;;;;;3.13;2.70;;;;;;;11.71;45.18;98962.34;4847781;29;20256;-81
2021/03/13 08:04:11;;;;;;;3.53;3.13;;;;;;;11.92;44.52;98968.91;4858831;29;20240;-80
2021/03/13 08:07:16;;;;;;;3.37;2.77;;;;;;;12.06;44.03;98961.31;4840743;29;20244;-81
2021/03/13 08:10:55;;;;;;;3.23;2.60;;;;;;;12.39;43.28;98953.22;4829121;29;20255;-82
2021/03/13 08:14:19;;;;;;;4.37;2.50;;;;;;;12.60;42.56;98960.50;4858982;29;20256;-81
2021/03/13 08:17:19;;;;;;;4.23;2.53;;;;;;;12.52;43.02;98954.75;4929115;23;20271;-81
2021/03/13 08:21:32;;;;;;;4.07;2.63;;;;;;;13.02;41.81;98955.38;4910584;29;20234;-82
2021/03/13 08:24:39;;;;;;;2.60;2.30;;;;;;;13.19;40.82;98953.47;4918525;29;20237;-81
2021/03/13 08:27:48;;;;;;;2.40;2.20;;;;;;;13.39;39.75;98952.84;4919275;29;20234;-81
2021/03/13 08:30:45;;;;;;;2.80;2.10;;;;;;;13.46;39.76;98940.00;4902258;29;20251;-79
2021/03/13 08:33:29;;;;;;;2.23;2.00;;;;;;;13.57;39.22;98940.94;4919609;29;20224;-81
2021/03/13 08:36:53;;;;;;;2.40;1.87;;;;;;;13.70;39.08;98948.56;4901222;29;20242;-81
2021/03/13 08:39:55;;;;;;;3.43;2.40;;;;;;;13.71;38.56;98952.09;4914618;29;20238;-81
2021/03/13 08:42:41;;;;;;;2.67;2.10;;;;;;;13.40;39.21;98942.91;4904445;29;20303;-80
2021/03/13 08:45:25;;;;;;;2.27;2.07;;;;;;;13.75;39.36;98940.53;4889847;29;20223;-82
2021/03/13 08:48:21;;;;;;;2.30;2.10;;;;;;;13.88;39.06;98939.28;4906676;29;20230;-81
2021/03/13 08:51:39;;;;;;;2.70;2.03;;;;;;;14.07;38.51;98927.06;4918929;29;20294;-81
2021/03/13 08:54:50;;;;;;;3.73;2.30;;;;;;;13.92;38.75;98894.63;4865574;23;20288;-81
2021/03/13 08:57:49;;;;;;;2.97;2.13;;;;;;;14.11;38.55;98923.56;4920710;29;20254;-82
2021/03/13 09:00:42;;;;;;;2.90;2.13;;;;;;;14.28;38.20;98906.41;4906608;29;20231;-82
2021/03/13 09:03:35;;;;;;;2.37;1.73;;;;;;;14.37;37.35;98921.88;4914735;29;20219;-81
2021/03/13 09:06:29;;;;;;;2.80;1.73;;;;;;;14.41;37.09;98928.38;4904901;29;20235;-82
2021/03/13 09:09:22;;;;;;;2.23;2.03;;;;;;;14.44;36.42;98894.69;4919874;29;20191;-79
2021/03/13 09:12:27;;;;;;;2.53;1.77;;;;;;;14.63;36.31;98917.44;4919437;29;20246;-79
2021/03/13 09:15:31;;;;;;;2.90;1.80;;;;;;;14.52;36.04;98911.16;4918450;29;20226;-79
2021/03/13 09:19:03;;;;;;;2.00;1.57;;;;;;;14.83;35.43;98914.00;4907916;29;20229;-78
2021/03/13 09:22:05;;;;;;;3.53;1.70;;;;;;;14.88;35.13;98909.41;4920134;29;20269;-80
2021/03/13 09:25:27;;;;;;;2.13;1.67;;;;;;;15.21;34.88;98891.19;4911949;29;20283;-79
2021/03/13 09:28:43;;;;;;;2.80;1.80;;;;;;;15.30;34.62;98893.06;4918341;29;20215;-80
2021/03/13 09:31:43;;;;;;;2.97;1.70;;;;;;;15.07;35.06;98866.59;4927142;23;20238;-78
2021/03/13 09:35:03;;;;;;;2.83;2.10;;;;;;;15.26;34.32;98851.50;4927979;29;20254;-78
2021/03/13 09:38:17;;;;;;;3.03;1.90;;;;;;;15.62;34.22;98865.88;4955613;23;20209;-78
2021/03/13 09:41:40;;;;;;;3.40;1.77;;;;;;;15.56;33.96;98841.84;4953513;23;20299;-78
2021/03/13 09:44:48;;;;;;;3.77;2.00;;;;;;;15.66;34.16;98858.03;4891233;29;20225;-79
2021/03/13 09:48:00;;;;;;;2.17;1.77;;;;;;;15.40;34.33;98836.41;4941473;29;20657;-78
2021/03/13 09:50:58;;;;;;;2.80;2.00;;;;;;;15.56;34.01;98841.84;4982065;23;20281;-80
2021/03/13 09:54:42;;;;;;;2.30;1.60;;;;;;;15.32;34.59;98820.75;4947792;29;20226;-80
2021/03/13 09:58:22;;;;;;;2.20;1.70;;;;;;;15.58;34.38;98840.50;4914059;23;20253;-78
2021/03/13 10:01:35;;;;;;;2.57;2.00;;;;;;;15.47;35.38;98817.25;4948055;23;20249;-80
2021/03/13 10:09:09;;;;;;;2.67;1.70;;;;;;;16.30;33.24;98818.44;4944504;23;20243;-79
2021/03/13 10:13:11;;;;;;;2.67;1.60;;;;;;;17.06;32.30;98814.56;4919069;29;20176;-80
2021/03/13 10:16:49;;;;;;;3.13;1.57;;;;;;;16.85;32.00;98764.38;4899328;29;20237;-80
2021/03/13 10:19:49;;;;;;;2.53;1.63;;;;;;;17.29;31.42;98792.19;4906203;29;20276;-81
2021/03/13 10:22:37;;;;;;;1.83;1.60;;;;;;;17.44;31.78;98775.81;4906061;29;20239;-82
2021/03/13 10:25:16;;;;;;;2.30;1.60;;;;;;;17.29;31.23;98756.19;4900885;29;20241;-81
2021/03/13 10:27:54;;;;;;;1.87;1.30;;;;;;;17.51;30.73;98764.66;4902197;29;20241;-80
2021/03/13 10:30:44;;;;;;;3.03;1.40;;;;;;;17.77;30.23;98785.03;4895984;29;20320;-80
2021/03/13 10:33:33;;;;;;;2.83;1.47;;;;;;;18.02;29.62;98768.47;4916466;29;20228;-79
2021/03/13 10:36:18;;;;;;;3.07;1.67;;;;;;;17.40;30.48;98742.28;4907240;29;20232;-81
2021/03/13 10:39:00;;;;;;;1.63;1.40;;;;;;;17.58;30.99;98738.91;4898359;29;20228;-83
2021/03/13 10:42:00;;;;;;;1.47;1.20;;;;;;;18.12;29.68;98736.91;4873776;29;20237;-83
2021/03/13 10:44:38;;;;;;;1.43;1.20;;;;;;;18.01;30.25;98738.94;4884757;29;20254;-81
2021/03/13 10:47:33;;;;;;;1.67;1.20;;;;;;;18.43;29.56;98725.38;4888454;29;20578;-80
2021/03/13 10:50:31;;;;;;;2.30;1.10;;;;;;;18.26;29.37;98713.41;4898467;29;20642;-81
2021/03/13 10:53:32;;;;;;;1.17;1.00;;;;;;;18.33;28.52;98700.31;4888067;29;20321;-81
2021/03/13 10:56:17;;;;;;;1.27;0.87;;;;;;;18.40;28.08;98706.19;4912740;29;20352;-80
2021/03/13 10:59:00;;;;;;;2.10;0.90;;;;;;;18.08;28.42;98696.03;4886020;29;20709;-86
2021/03/13 11:01:31;;;;;;;1.83;1.00;;;;;;;17.70;27.93;98687.00;4885139;29;20236;-86
2021/03/13 11:04:08;;;;;;;1.37;0.90;;;;;;;17.76;27.84;98669.63;4902564;29;20517;-80
2021/03/13 11:06:59;;;;;;;1.83;0.73;;;;;;;18.08;27.74;98671.66;4887171;29;20217;-84
2021/03/13 11:09:52;;;;;;;1.53;1.00;;;;;;;18.44;27.56;98663.81;4892704;29;20242;-85
2021/03/13 11:12:26;;;;;;;1.93;0.80;;;;;;;18.05;27.04;98645.13;4901620;29;20222;-82
2021/03/13 11:14:58;;;;;;;2.27;1.43;;;;;;;17.95;27.17;98645.28;4886547;29;20267;-83
2021/03/13 11:17:37;;;;;;;5.30;1.40;;;;;;;17.79;28.07;98641.13;4886052;29;20237;-85
2021/03/13 11:20:16;;;;;;;1.80;1.03;;;;;;;17.89;27.53;98649.94;4883522;29;20673;-83
2021/03/13 11:22:58;;;;;;;1.07;0.90;;;;;;;17.80;27.78;98635.44;4914610;29;20232;-85
2021/03/13 11:25:41;;;;;;;2.70;1.00;;;;;;;17.72;27.54;98594.63;4900937;29;20309;-85
2021/03/13 11:28:20;;;;;;;2.03;1.10;;;;;;;17.65;27.66;98613.94;4901378;29;21237;-81
2021/03/13 11:31:03;;;;;;;1.30;1.10;;;;;;;17.82;27.70;98578.25;4902848;29;20234;-84
2021/03/13 11:33:52;;;;;;;2.70;1.03;;;;;;;17.34;28.33;98578.28;4886973;29;20230;-83
2021/03/13 11:36:53;;;;;;;3.53;1.10;;;;;;;17.65;27.55;98570.59;4876712;29;20239;-83
2021/03/13 11:39:42;;;;;;;1.33;1.10;;;;;;;18.00;26.99;98555.78;4891968;29;20668;-84
2021/03/13 11:42:33;;;;;;;1.20;1.03;;;;;;;18.09;26.81;98550.50;4917113;29;20229;-83
2021/03/13 11:45:12;;;;;;;1.10;0.90;;;;;;;18.81;26.75;98565.31;4894691;29;20273;-86
2021/03/13 11:48:04;;;;;;;2.37;1.20;;;;;;;18.78;26.07;98574.06;4892926;29;20240;-85
2021/03/13 11:50:47;;;;;;;2.43;1.10;;;;;;;19.00;25.52;98555.19;4889870;29;20372;-85
2021/03/13 11:53:29;;;;;;;1.23;1.00;;;;;;;18.87;25.33;98526.13;4876111;29;20228;-86
2021/03/13 11:56:14;;;;;;;2.73;1.40;;;;;;;18.98;25.77;98562.03;4888403;29;20226;-87
2021/03/13 11:59:04;;;;;;;1.37;1.20;;;;;;;18.92;25.25;98534.97;4905622;29;20242;-87
2021/03/13 12:01:54;;;;;;;1.80;1.10;;;;;;;19.11;24.84;98553.91;4904601;29;20561;-85
2021/03/13 12:04:37;;;;;;;1.87;1.30;;;;;;;18.84;25.44;98535.69;4878181;29;20309;-85
2021/03/13 12:07:23;;;;;;;1.53;1.20;;;;;;;18.97;25.91;98517.00;4890037;29;20226;-85
2021/03/13 12:10:17;;;;;;;2.90;1.60;;;;;;;18.27;26.05;98512.50;4892226;29;20226;-84
2021/03/13 12:13:08;;;;;;;1.23;1.07;;;;;;;18.52;26.30;98508.56;4879339;29;20727;-86
2021/03/13 12:15:59;;;;;;;3.00;1.50;;;;;;;18.64;26.85;98506.19;4891076;29;20243;-83
2021/03/13 12:18:36;;;;;;;1.60;1.50;;;;;;;19.15;27.00;98499.78;4872694;29;20234;-84
2021/03/13 12:21:09;;;;;;;3.53;1.63;;;;;;;18.55;27.92;98459.19;4882106;29;20227;-82
2021/03/13 12:23:43;;;;;;;2.10;1.40;;;;;;;18.56;27.30;98466.22;4873242;29;20241;-80
2021/03/13 12:26:26;;;;;;;3.77;1.80;;;;;;;18.98;27.37;98477.91;4887949;29;20234;-81
2021/03/13 12:29:09;;;;;;;2.10;1.70;;;;;;;18.78;27.64;98485.31;4901900;29;20639;-82
2021/03/13 12:31:48;;;;;;;3.20;1.70;;;;;;;18.70;27.54;98475.16;4891802;29;20234;-84
2021/03/13 12:34:29;;;;;;;2.53;1.93;;;;;;;18.73;28.67;98496.25;4889321;29;20256;-85
2021/03/13 12:37:06;;;;;;;2.30;1.90;;;;;;;18.85;28.31;98455.88;4901700;29;20558;-84
2021/03/13 12:39:39;;;;;;;3.37;1.80;;;;;;;18.64;29.01;98453.84;4871567;29;20235;-83
2021/03/13 12:42:15;;;;;;;4.80;2.90;;;;;;;18.63;29.44;98450.34;4874614;29;20539;-82
2021/03/13 12:44:44;;;;;;;3.77;2.30;;;;;;;18.48;29.15;98415.31;4888802;29;20222;-83
2021/03/13 12:47:20;;;;;;;4.27;3.20;;;;;;;18.75;29.06;98452.56;4886119;29;20230;-85
2021/03/13 12:49:57;;;;;;;4.03;2.03;;;;;;;18.32;29.34;98452.78;4886376;29;20234;-83
2021/03/13 12:52:32;;;;;;;1.60;1.50;;;;;;;18.32;29.41;98428.38;4841992;29;20235;-82
2021/03/13 12:55:13;;;;;;;1.93;1.60;;;;;;;18.46;29.17;98422.97;4866031;29;20228;-82
2021/03/13 12:57:51;;;;;;;1.67;1.50;;;;;;;18.28;29.44;98418.44;4880646;29;20575;-85
2021/03/13 13:00:36;;;;;;;2.83;2.23;;;;;;;18.24;29.74;98393.03;4889836;29;20246;-85
2021/03/13 13:03:07;;;;;;;3.97;2.47;;;;;;;17.95;29.90;98385.94;4888643;29;20582;-82
2021/03/13 13:05:43;;;;;;;5.83;2.53;;;;;;;18.06;30.33;98389.25;4903172;29;20638;-83
2021/03/13 13:08:16;;;;;;;2.70;2.23;;;;;;;18.28;29.95;98381.28;4889933;29;20250;-84
2021/03/13 13:10:49;;;;;;;2.40;2.20;;;;;;;18.17;29.79;98373.63;4893394;29;20228;-84
2021/03/13 13:13:21;;;;;;;2.97;2.27;;;;;;;17.47;31.44;98344.72;4923791;29;20259;-83
2021/03/13 13:16:00;;;;;;;7.50;3.70;;;;;;;17.46;32.52;98370.16;4916974;29;20225;-82
2021/03/13 13:18:33;;;;;;;3.63;2.80;;;;;;;17.52;32.54;98384.44;4928347;29;20222;-83
2021/03/13 13:21:05;;;;;;;4.70;2.83;;;;;;;17.41;33.14;98372.94;4923055;29;20229;-82
2021/03/13 13:23:43;;;;;;;5.00;2.90;;;;;;;17.06;34.33;98371.59;4923384;29;20236;-86
2021/03/13 13:26:28;;;;;;;4.23;3.63;;;;;;;16.93;35.76;98349.88;4938196;29;20261;-79
2021/03/13 13:29:23;;;;;;;4.73;2.53;;;;;;;17.16;36.34;98349.78;4924041;29;20224;-79
2021/03/13 13:32:14;;;;;;;5.57;2.70;;;;;;;17.24;34.92;98355.63;4914327;29;20281;-80
2021/03/13 13:34:58;;;;;;;3.33;2.80;;;;;;;17.44;34.64;98364.25;4919082;29;20229;-80
2021/03/13 13:37:47;;;;;;;4.17;3.07;;;;;;;17.44;34.76;98358.84;4918731;29;20233;-80
2021/03/13 13:40:33;;;;;;;3.93;3.13;;;;;;;17.75;34.59;98375.44;4923356;29;20312;-79
2021/03/13 13:43:24;;;;;;;4.53;3.20;;;;;;;17.57;33.27;98319.38;4905375;29;20234;-80
2021/03/13 13:46:18;;;;;;;5.00;4.50;;;;;;;17.67;32.91;98342.81;4919417;29;20230;-84
2021/03/13 13:49:11;;;;;;;4.43;2.47;;;;;;;17.79;32.86;98341.22;4938430;29;20222;-80
2021/03/13 13:52:00;;;;;;;4.87;4.00;;;;;;;17.92;32.51;98321.47;4904061;29;20234;-82
2021/03/13 13:54:45;;;;;;;2.63;2.27;;;;;;;17.75;33.01;98332.09;4917783;29;20222;-80
2021/03/13 13:57:32;;;;;;;4.37;3.73;;;;;;;18.18;32.42;98335.38;4912857;29;20539;-81
2021/03/13 14:00:24;;;;;;;6.77;2.40;;;;;;;18.25;32.42;98351.22;4935679;29;20233;-81
2021/03/13 14:03:15;;;;;;;3.00;2.30;;;;;;;18.07;32.92;98347.50;4907988;29;20246;-80
2021/03/13 14:06:03;;;;;;;2.60;1.87;;;;;;;17.97;32.76;98315.97;4894076;29;20823;-80
2021/03/13 14:08:56;;;;;;;2.17;1.97;;;;;;;18.30;32.65;98316.69;4908524;29;20646;-81
2021/03/13 14:11:53;;;;;;;2.23;2.00;;;;;;;18.26;32.19;98318.41;4905008;29;20226;-80
2021/03/13 14:14:44;;;;;;;2.33;1.70;;;;;;;18.16;32.59;98313.19;4911599;29;20592;-81
2021/03/13 14:17:26;;;;;;;2.80;2.17;;;;;;;18.02;32.38;98320.50;4904912;29;20225;-79
2021/03/13 14:20:20;;;;;;;2.27;2.03;;;;;;;17.95;32.55;98307.34;4901208;29;20227;-79
2021/03/13 14:23:05;;;;;;;2.60;1.90;;;;;;;17.90;33.09;98303.94;4899874;29;20228;-80
2021/03/13 14:25:50;;;;;;;3.57;2.50;;;;;;;17.70;33.78;98296.16;4923811;29;20244;-81
2021/03/13 14:28:31;;;;;;;4.03;2.40;;;;;;;17.75;33.49;98299.59;4898987;29;20263;-82
2021/03/13 14:31:11;;;;;;;2.07;1.97;;;;;;;17.62;33.51;98297.66;4902615;29;20638;-81
2021/03/13 14:34:16;;;;;;;2.50;2.30;;;;;;;17.41;34.20;98288.22;4903208;29;20226;-81
2021/03/13 14:37:03;;;;;;;2.47;1.93;;;;;;;17.11;35.23;98267.88;4917533;29;20226;-80
2021/03/13 14:39:55;;;;;;;2.30;2.10;;;;;;;17.20;34.82;98276.94;4913638;29;20642;-81
2021/03/13 14:42:48;;;;;;;2.37;2.10;;;;;;;16.80;35.22;98247.81;4906939;29;20220;-81
2021/03/13 14:45:33;;;;;;;2.17;1.87;;;;;;;17.15;35.39;98280.53;4901605;29;20315;-81
2021/03/13 14:48:31;;;;;;;2.60;2.00;;;;;;;17.10;36.02;98302.25;4906192;29;20597;-81
2021/03/13 14:51:25;;;;;;;2.30;2.10;;;;;;;16.62;35.99;98279.13;4915848;29;20225;-86
2021/03/13 14:57:51;;;;;;;2.60;2.07;;;;;;;16.71;36.17;98289.00;4918102;29;20776;-83
2021/03/13 15:00:34;;;;;;;2.83;2.30;;;;;;;16.59;36.35;98248.09;4898951;29;20311;-85
2021/03/13 15:03:08;;;;;;;2.87;2.40;;;;;;;16.54;36.17;98256.22;4912956;29;20339;-85
2021/03/13 15:06:17;;;;;;;3.67;2.50;;;;;;;16.40;36.73;98255.34;4919189;29;20224;-81
2021/03/13 15:09:11;;;;;;;2.70;2.50;;;;;;;16.44;37.06;98261.78;4932118;29;20235;-81
2021/03/13 15:11:59;;;;;;;3.97;2.70;;;;;;;16.42;37.19;98252.34;4936000;29;20560;-84